Time;durP1;ratioP1;P1;durP2;ratioP2;P2;SDS_P1;SDS_P2;PMS_P1;PMS_P2;Temp;Humidity;BMP_temperature;BMP_pressure;BME280_temperature;BME280_humidity;BME280_pressure;Samples;Min_cycle;Max_cycle;Signal;HPM_P1;HPM_P2
2023/07/19 00:00:32;;;;;;;;;;;;;;;18.13;68.94;101352.16;5049775;28;1168;-76
2023/07/19 00:02:57;;;;;;;;;;;;;;;18.16;69.03;101352.63;5029485;28;1231;-75
2023/07/19 00:05:22;;;;;;;;;;;;;;;18.17;68.77;101348.19;5029325;28;1256;-75
2023/07/19 00:07:47;;;;;;;;;;;;;;;18.13;69.14;101352.16;5042370;28;1509;-75
2023/07/19 00:10:13;;;;;;;;;;;;;;;18.09;68.96;101345.56;5042145;28;1898;-75
2023/07/19 00:12:38;;;;;;;;;;;;;;;18.11;69.22;101340.97;5020510;28;1214;-75
2023/07/19 00:15:03;;;;;;;;;;;;;;;18.16;68.90;101343.94;5041384;28;1621;-79
2023/07/19 00:17:28;;;;;;;;;;;;;;;18.18;68.93;101339.31;5050745;28;1315;-77
2023/07/19 00:19:53;;;;;;;;;;;;;;;18.18;69.26;101339.31;5045246;28;1291;-76
2023/07/19 00:22:19;;;;;;;;;;;;;;;18.12;69.36;101332.09;5043824;28;1344;-77
2023/07/19 00:24:44;;;;;;;;;;;;;;;18.12;69.22;101329.47;5043181;28;1196;-76
2023/07/19 00:27:09;;;;;;;;;;;;;;;18.14;69.21;101322.28;5042450;28;1241;-75
2023/07/19 00:29:34;;;;;;;;;;;;;;;18.15;69.25;101323.91;5044192;28;1893;-76
2023/07/19 00:31:59;;;;;;;;;;;;;;;18.10;69.53;101326.19;5046017;28;1303;-76
2023/07/19 00:34:25;;;;;;;;;;;;;;;18.03;69.75;101316.34;5044751;28;1085;-76
2023/07/19 00:36:50;;;;;;;;;;;;;;;18.01;69.57;101315.69;5029639;28;1151;-76
2023/07/19 00:39:15;;;;;;;;;;;;;;;18.00;69.91;101306.16;5040207;28;2024;-76
2023/07/19 00:41:40;;;;;;;;;;;;;;;18.04;69.52;101306.66;5048223;28;1094;-75
2023/07/19 00:44:05;;;;;;;;;;;;;;;18.04;69.39;101307.47;5049176;28;1131;-76
2023/07/19 00:46:31;;;;;;;;;;;;;;;18.03;69.50;101300.59;5046519;28;1282;-75
2023/07/19 00:48:56;;;;;;;;;;;;;;;17.99;69.55;101296.66;5041956;28;1898;-78
2023/07/19 00:51:21;;;;;;;;;;;;;;;17.92;69.94;101293.03;5043647;28;1082;-76
2023/07/19 00:53:47;;;;;;;;;;;;;;;17.81;70.22;101293.34;5044296;28;1204;-76
2023/07/19 00:56:13;;;;;;;;;;;;;;;17.73;70.40;101288.09;5044508;28;1088;-76
2023/07/19 00:58:40;;;;;;;;;;;;;;;17.64;70.72;101289.81;5041184;28;1134;-76
2023/07/19 01:01:05;;;;;;;;;;;;;;;17.62;70.77;101285.72;5043073;28;1265;-75
2023/07/19 01:03:30;;;;;;;;;;;;;;;17.63;70.82;101277.69;5043449;28;1347;-77
2023/07/19 01:05:57;;;;;;;;;;;;;;;17.60;70.88;101280.63;5026010;28;1249;-76
2023/07/19 01:08:23;;;;;;;;;;;;;;;17.53;70.98;101283.06;5042394;28;1116;-75
2023/07/19 01:10:48;;;;;;;;;;;;;;;17.42;71.25;101285.97;5047493;28;1956;-75
2023/07/19 01:13:14;;;;;;;;;;;;;;;17.32;71.01;101280.06;5041377;28;1196;-75
2023/07/19 01:15:42;;;;;;;;;;;;;;;17.30;71.65;101282.00;5041261;28;1432;-76
2023/07/19 01:18:07;;;;;;;;;;;;;;;17.26;71.49;101285.91;5045064;28;1133;-76
2023/07/19 01:20:32;;;;;;;;;;;;;;;17.21;71.56;101290.84;5048314;28;1138;-76
2023/07/19 01:22:58;;;;;;;;;;;;;;;17.13;71.49;101288.16;5040926;28;1016;-76
2023/07/19 01:25:23;;;;;;;;;;;;;;;17.10;72.22;101288.47;5036276;28;1135;-76
2023/07/19 01:27:49;;;;;;;;;;;;;;;17.07;72.24;101286.16;5044356;28;1321;-76
2023/07/19 01:30:14;;;;;;;;;;;;;;;17.02;72.20;101293.66;5048462;28;1961;-76
2023/07/19 01:32:39;;;;;;;;;;;;;;;16.98;72.78;101294.00;5029240;28;1266;-76
2023/07/19 01:35:05;;;;;;;;;;;;;;;16.99;72.44;101290.38;5050325;28;1405;-77
2023/07/19 01:37:30;;;;;;;;;;;;;;;16.95;72.94;101286.44;5046056;28;1297;-75
2023/07/19 01:39:55;;;;;;;;;;;;;;;16.94;73.17;101283.97;5047547;28;1220;-75
2023/07/19 01:42:20;;;;;;;;;;;;;;;16.91;73.47;101282.47;5045172;28;1256;-77
2023/07/19 01:44:46;;;;;;;;;;;;;;;16.88;73.52;101279.34;5044403;28;1143;-75
2023/07/19 01:47:11;;;;;;;;;;;;;;;16.84;73.65;101278.00;5045374;28;1277;-76
2023/07/19 01:49:38;;;;;;;;;;;;;;;16.79;73.95;101283.72;5044065;28;1987;-75
2023/07/19 01:52:03;;;;;;;;;;;;;;;16.77;73.97;101280.44;5043102;28;1232;-76
2023/07/19 01:54:29;;;;;;;;;;;;;;;16.75;74.31;101292.88;5041482;28;1135;-75
2023/07/19 01:56:54;;;;;;;;;;;;;;;16.75;74.39;101276.34;5041653;28;1093;-76
2023/07/19 01:59:19;;;;;;;;;;;;;;;16.71;74.21;101281.06;5042845;28;1359;-76
2023/07/19 02:01:44;;;;;;;;;;;;;;;16.68;74.40;101276.06;5044724;28;1069;-76
2023/07/19 02:04:09;;;;;;;;;;;;;;;16.63;74.87;101283.56;5034037;28;1185;-75
2023/07/19 02:06:35;;;;;;;;;;;;;;;16.60;74.77;101278.66;5057118;28;1207;-76
2023/07/19 02:09:00;;;;;;;;;;;;;;;16.58;75.10;101270.13;5045128;28;1894;-76
2023/07/19 02:11:25;;;;;;;;;;;;;;;16.57;74.78;101268.47;5049656;28;1371;-76
2023/07/19 02:13:50;;;;;;;;;;;;;;;16.54;74.91;101263.56;5046947;28;1183;-77
2023/07/19 02:16:16;;;;;;;;;;;;;;;16.50;75.11;101265.66;5048511;28;1089;-75
2023/07/19 02:18:41;;;;;;;;;;;;;;;16.51;75.03;101251.56;5050029;28;1268;-76
2023/07/19 02:21:06;;;;;;;;;;;;;;;16.53;75.48;101256.69;5026015;28;1298;-75
2023/07/19 02:23:33;;;;;;;;;;;;;;;16.53;75.68;101260.13;5032187;28;1258;-76
2023/07/19 02:25:58;;;;;;;;;;;;;;;16.55;75.64;101254.72;5045964;28;1185;-76
2023/07/19 02:28:23;;;;;;;;;;;;;;;16.55;75.29;101250.28;5035774;28;1425;-77
2023/07/19 02:30:49;;;;;;;;;;;;;;;16.53;75.61;101256.69;5047171;28;1898;-75
2023/07/19 02:33:15;;;;;;;;;;;;;;;16.51;75.45;101261.22;5050773;28;1571;-76
2023/07/19 02:35:40;;;;;;;;;;;;;;;16.51;75.29;101262.03;5045415;28;1233;-76
2023/07/19 02:38:05;;;;;;;;;;;;;;;16.47;75.76;101255.50;5048090;28;1395;-76
2023/07/19 02:40:30;;;;;;;;;;;;;;;16.44;75.35;101261.03;5045485;28;1227;-76
2023/07/19 02:42:56;;;;;;;;;;;;;;;16.41;75.28;101259.53;5047059;28;1173;-76
2023/07/19 02:45:21;;;;;;;;;;;;;;;16.38;75.51;101262.44;5031197;28;1500;-75
2023/07/19 02:47:46;;;;;;;;;;;;;;;16.34;75.97;101258.47;5045941;28;1233;-76
2023/07/19 02:50:12;;;;;;;;;;;;;;;16.33;75.75;101256.03;5046955;28;1914;-76
2023/07/19 02:52:37;;;;;;;;;;;;;;;16.31;75.38;101264.03;5043844;28;1224;-76
2023/07/19 02:55:03;;;;;;;;;;;;;;;16.29;75.97;101263.38;5045168;28;1305;-75
2023/07/19 02:57:28;;;;;;;;;;;;;;;16.28;75.88;101269.56;5047067;28;1214;-76
2023/07/19 02:59:53;;;;;;;;;;;;;;;16.26;76.10;101265.47;5034907;28;1285;-76
2023/07/19 03:02:18;;;;;;;;;;;;;;;16.26;75.56;101266.28;5023687;28;1229;-75
2023/07/19 03:04:44;;;;;;;;;;;;;;;16.22;76.05;101254.47;5033520;28;1278;-75
2023/07/19 03:07:09;;;;;;;;;;;;;;;16.21;76.27;101260.69;5045478;28;1370;-76
2023/07/19 03:09:34;;;;;;;;;;;;;;;16.22;76.23;101259.69;5044205;28;1894;-76
2023/07/19 03:11:59;;;;;;;;;;;;;;;16.24;75.99;101257.78;5032313;28;1436;-76
2023/07/19 03:14:24;;;;;;;;;;;;;;;16.27;75.94;101260.06;5044905;28;1230;-76
2023/07/19 03:16:50;;;;;;;;;;;;;;;16.29;76.04;101276.47;5025846;28;1281;-78
2023/07/19 03:19:15;;;;;;;;;;;;;;;16.28;76.74;101266.94;5029791;28;1260;-76
2023/07/19 03:21:40;;;;;;;;;;;;;;;16.27;76.74;101252.22;5046857;28;1222;-76
2023/07/19 03:24:05;;;;;;;;;;;;;;;16.28;76.58;101253.84;5044866;28;1186;-76
2023/07/19 03:26:31;;;;;;;;;;;;;;;16.26;77.31;101250.59;5046369;28;1209;-75
2023/07/19 03:28:56;;;;;;;;;;;;;;;16.25;77.35;101246.31;5048132;28;1898;-76
2023/07/19 03:31:21;;;;;;;;;;;;;;;16.23;77.55;101250.91;5046111;28;1491;-75
2023/07/19 03:33:46;;;;;;;;;;;;;;;16.23;77.60;101265.75;5048507;28;1287;-75
2023/07/19 03:36:12;;;;;;;;;;;;;;;16.24;77.49;101268.25;5036193;28;1297;-76
2023/07/19 03:38:37;;;;;;;;;;;;;;;16.22;77.47;101261.50;5048898;28;1281;-77
2023/07/19 03:41:06;;;;;;;;;;;;;;;16.22;77.59;101257.09;5043763;28;1308;-76
2023/07/19 03:43:31;;;;;;;;;;;;;;;16.24;78.20;101257.78;5046912;28;1083;-76
2023/07/19 03:45:56;;;;;;;;;;;;;;;16.24;78.32;101263.00;5031539;28;1179;-76
2023/07/19 03:48:22;;;;;;;;;;;;;;;16.27;78.51;101256.63;5046939;28;1094;-76
2023/07/19 03:51:03;;;;;;;;;;;;;;;16.26;78.65;101253.19;5047153;28;2238;-77
2023/07/19 03:53:28;;;;;;;;;;;;;;;16.31;78.61;101255.38;5044595;28;1223;-76
2023/07/19 03:55:54;;;;;;;;;;;;;;;16.37;78.83;101258.19;5042046;28;1317;-76
2023/07/19 03:58:20;;;;;;;;;;;;;;;16.40;78.66;101257.91;5047843;28;1137;-76
2023/07/19 04:00:45;;;;;;;;;;;;;;;16.42;78.67;101255.94;5034406;28;1308;-75
2023/07/19 04:03:11;;;;;;;;;;;;;;;16.42;78.97;101255.94;5046173;28;1321;-76
2023/07/19 04:05:36;;;;;;;;;;;;;;;16.45;78.88;101260.03;5047193;28;1124;-76
2023/07/19 04:08:01;;;;;;;;;;;;;;;16.45;79.10;101255.63;5043537;28;1161;-76
2023/07/19 04:10:26;;;;;;;;;;;;;;;16.44;79.28;101253.97;5044598;28;1898;-78
2023/07/19 04:12:52;;;;;;;;;;;;;;;16.43;78.96;101251.53;5043118;28;1005;-76
2023/07/19 04:15:17;;;;;;;;;;;;;;;16.41;79.21;101249.06;5045695;28;1105;-77
2023/07/19 04:17:42;;;;;;;;;;;;;;;16.40;79.42;101257.91;5045570;28;1029;-77
2023/07/19 04:20:08;;;;;;;;;;;;;;;16.36;79.41;101261.78;5046237;28;1053;-76
2023/07/19 04:22:34;;;;;;;;;;;;;;;16.37;79.32;101255.56;5047100;28;1093;-76
2023/07/19 04:24:59;;;;;;;;;;;;;;;16.41;79.88;101254.31;5042798;28;1267;-76
2023/07/19 04:27:24;;;;;;;;;;;;;;;16.45;79.33;101250.38;5048320;28;1249;-78
2023/07/19 04:29:49;;;;;;;;;;;;;;;16.45;79.67;101255.63;5025042;28;1949;-76
2023/07/19 04:32:15;;;;;;;;;;;;;;;16.45;79.69;101260.84;5048342;28;1218;-76
2023/07/19 04:34:40;;;;;;;;;;;;;;;16.43;79.70;101257.59;5034844;28;1246;-76
2023/07/19 04:37:06;;;;;;;;;;;;;;;16.41;80.31;101253.50;5049604;28;1156;-76
2023/07/19 04:39:31;;;;;;;;;;;;;;;16.41;80.10;101254.31;5043283;28;1301;-77
2023/07/19 04:41:56;;;;;;;;;;;;;;;16.41;79.99;101258.72;5038156;28;1272;-77
2023/07/19 04:44:21;;;;;;;;;;;;;;;16.41;80.02;101270.00;5041804;28;1032;-77
2023/07/19 04:46:47;;;;;;;;;;;;;;;16.41;80.15;101267.41;5043344;28;1091;-77
2023/07/19 04:49:12;;;;;;;;;;;;;;;16.41;80.47;101264.78;5044166;28;1952;-78
2023/07/19 04:51:38;;;;;;;;;;;;;;;16.42;80.57;101266.41;5043115;28;1299;-77
2023/07/19 04:54:03;;;;;;;;;;;;;;;16.42;80.66;101266.41;5043397;28;1273;-78
2023/07/19 04:56:29;;;;;;;;;;;;;;;16.43;81.00;101262.81;5034174;28;1257;-78
2023/07/19 04:58:54;;;;;;;;;;;;;;;16.44;80.64;101274.94;5047277;28;1478;-78
2023/07/19 05:01:19;;;;;;;;;;;;;;;16.46;80.84;101273.00;5046118;28;1705;-78
2023/07/19 05:03:44;;;;;;;;;;;;;;;16.49;80.88;101276.28;5044360;28;1275;-78
2023/07/19 05:06:10;;;;;;;;;;;;;;;16.50;80.86;101267.44;5044331;28;1511;-78
2023/07/19 05:08:36;;;;;;;;;;;;;;;16.46;80.89;101267.75;5038650;28;1247;-78
2023/07/19 05:11:03;;;;;;;;;;;;;;;16.48;81.12;101279.88;5043211;28;1197;-77
2023/07/19 05:13:28;;;;;;;;;;;;;;;16.50;81.00;101272.69;5024117;28;1277;-77
2023/07/19 05:15:53;;;;;;;;;;;;;;;16.51;81.12;101271.69;5040138;28;1393;-76
2023/07/19 05:18:18;;;;;;;;;;;;;;;16.55;81.10;101267.81;5029891;28;1229;-77
2023/07/19 05:20:44;;;;;;;;;;;;;;;16.58;81.11;101270.97;5043310;28;1053;-78
2023/07/19 05:23:10;;;;;;;;;;;;;;;16.62;81.38;101268.84;5046286;28;1344;-77
2023/07/19 05:25:35;;;;;;;;;;;;;;;16.65;80.98;101276.41;5047503;28;1197;-77
2023/07/19 05:28:00;;;;;;;;;;;;;;;16.68;81.20;101281.31;5041701;28;1577;-76
2023/07/19 05:30:26;;;;;;;;;;;;;;;16.66;81.16;101276.22;5044278;28;1894;-76
2023/07/19 05:32:51;;;;;;;;;;;;;;;16.71;81.27;101275.81;5044302;28;1253;-77
2023/07/19 05:35:16;;;;;;;;;;;;;;;16.75;81.20;101274.53;5044204;28;1491;-77
2023/07/19 05:37:41;;;;;;;;;;;;;;;16.80;81.08;101274.88;5029069;28;1596;-76
2023/07/19 05:40:07;;;;;;;;;;;;;;;16.83;81.00;101279.81;5032262;28;1213;-77
2023/07/19 05:42:33;;;;;;;;;;;;;;;16.87;81.38;101275.09;5048092;28;1201;-76
2023/07/19 05:44:58;;;;;;;;;;;;;;;16.88;80.85;101267.06;5048840;28;1181;-77
2023/07/19 05:47:23;;;;;;;;;;;;;;;16.91;81.55;101263.31;5049568;28;1202;-78
2023/07/19 05:49:49;;;;;;;;;;;;;;;16.94;81.23;101271.69;5051619;28;1894;-77
2023/07/19 05:52:14;;;;;;;;;;;;;;;16.97;81.23;101267.91;5040136;28;1469;-78
2023/07/19 05:54:39;;;;;;;;;;;;;;;16.99;81.15;101269.44;5031710;28;1282;-78
2023/07/19 05:57:04;;;;;;;;;;;;;;;17.04;81.31;101276.00;5044427;28;1206;-78
2023/07/19 05:59:30;;;;;;;;;;;;;;;17.08;81.33;101277.31;5046867;28;1073;-77
2023/07/19 06:01:55;;;;;;;;;;;;;;;17.10;81.13;101263.09;5035276;28;1451;-77
2023/07/19 06:04:20;;;;;;;;;;;;;;;17.14;81.21;101272.25;5048628;28;1094;-77
2023/07/19 06:06:46;;;;;;;;;;;;;;;17.19;81.29;101274.41;5048848;28;1248;-77
2023/07/19 06:09:12;;;;;;;;;;;;;;;17.23;81.50;101276.56;5050863;28;1918;-77
2023/07/19 06:11:37;;;;;;;;;;;;;;;17.28;81.33;101272.66;5036168;28;1279;-77
2023/07/19 06:14:02;;;;;;;;;;;;;;;17.32;81.34;101269.59;5047505;28;1033;-77
2023/07/19 06:16:28;;;;;;;;;;;;;;;17.37;81.12;101272.53;5037166;28;1159;-78
2023/07/19 06:18:53;;;;;;;;;;;;;;;17.41;81.14;101273.84;5048256;28;1358;-78
2023/07/19 06:21:18;;;;;;;;;;;;;;;17.41;81.06;101267.78;5047945;28;1110;-77
2023/07/19 06:23:43;;;;;;;;;;;;;;;17.44;80.83;101267.50;5048944;28;1401;-77
2023/07/19 06:26:09;;;;;;;;;;;;;;;17.46;80.64;101261.09;5046706;28;1233;-77
2023/07/19 06:28:35;;;;;;;;;;;;;;;17.50;80.68;101262.41;5047794;28;1283;-77
2023/07/19 06:31:01;;;;;;;;;;;;;;;17.58;80.87;101268.66;5045534;28;1914;-77
2023/07/19 06:33:28;;;;;;;;;;;;;;;17.65;80.38;101274.91;5048568;28;1548;-77
2023/07/19 06:35:54;;;;;;;;;;;;;;;17.70;80.53;101272.63;5045897;28;1413;-77
2023/07/19 06:38:19;;;;;;;;;;;;;;;17.76;80.54;101264.13;5048149;28;1299;-78
2023/07/19 06:40:47;;;;;;;;;;;;;;;17.83;80.53;101266.94;5045749;28;1458;-79
2023/07/19 06:43:13;;;;;;;;;;;;;;;17.89;80.33;101272.38;5041696;28;1322;-77
2023/07/19 06:45:39;;;;;;;;;;;;;;;17.96;80.37;101265.50;5049216;28;1233;-79
2023/07/19 06:48:04;;;;;;;;;;;;;;;18.03;80.04;101268.28;5031720;28;1345;-77
2023/07/19 06:50:29;;;;;;;;;;;;;;;18.07;80.09;101269.59;5049392;28;1930;-78
2023/07/19 06:52:54;;;;;;;;;;;;;;;18.12;79.53;101276.97;5047481;28;1248;-77
2023/07/19 06:55:20;;;;;;;;;;;;;;;18.18;79.69;101268.44;5034342;28;1359;-78
2023/07/19 06:57:45;;;;;;;;;;;;;;;18.24;79.51;101278.31;5047984;28;1089;-77
2023/07/19 07:00:10;;;;;;;;;;;;;;;18.30;79.70;101264.53;5043838;28;1319;-77
2023/07/19 07:02:37;;;;;;;;;;;;;;;18.35;79.31;101280.63;5045160;28;1253;-78
2023/07/19 07:05:02;;;;;;;;;;;;;;;18.39;79.27;101276.66;5043629;28;1384;-78
2023/07/19 07:07:27;;;;;;;;;;;;;;;18.41;78.85;101274.69;5047822;28;1136;-77
2023/07/19 07:09:53;;;;;;;;;;;;;;;18.46;78.52;101267.13;5045411;28;1901;-78
2023/07/19 07:12:18;;;;;;;;;;;;;;;18.53;78.34;101265.50;5043183;28;1336;-77
2023/07/19 07:14:44;;;;;;;;;;;;;;;18.69;77.55;101269.09;5045431;28;1252;-77
2023/07/19 07:17:09;;;;;;;;;;;;;;;18.65;77.46;101273.03;5041543;28;1321;-77
2023/07/19 07:19:35;;;;;;;;;;;;;;;18.70;77.61;101278.63;5046563;28;1181;-77
2023/07/19 07:22:00;;;;;;;;;;;;;;;18.74;77.19;101269.41;5040924;28;1217;-77
2023/07/19 07:24:25;;;;;;;;;;;;;;;18.79;77.14;101264.47;5046872;28;1186;-77
2023/07/19 07:26:50;;;;;;;;;;;;;;;18.88;77.06;101275.78;5042564;28;1237;-76
2023/07/19 07:29:15;;;;;;;;;;;;;;;18.94;76.71;101273.31;5043961;28;1953;-78
2023/07/19 07:31:41;;;;;;;;;;;;;;;19.01;76.40;101269.00;5047638;28;1339;-78
2023/07/19 07:34:06;;;;;;;;;;;;;;;19.08;76.20;101264.69;5044665;28;1237;-76
2023/07/19 07:36:31;;;;;;;;;;;;;;;19.13;75.81;101266.84;5046767;28;1224;-77
2023/07/19 07:38:56;;;;;;;;;;;;;;;19.19;74.01;101262.69;5047005;28;1221;-78
2023/07/19 07:41:22;;;;;;;;;;;;;;;19.27;75.00;101262.69;5042125;28;1214;-78
2023/07/19 07:43:47;;;;;;;;;;;;;;;19.21;74.35;101266.81;5047289;28;1335;-77
2023/07/19 07:46:12;;;;;;;;;;;;;;;19.21;74.09;101263.34;5045979;28;1158;-77
2023/07/19 07:48:37;;;;;;;;;;;;;;;19.24;74.28;101265.63;5046054;28;1277;-77
2023/07/19 07:51:03;;;;;;;;;;;;;;;19.27;74.12;101273.19;5043204;28;1941;-77
2023/07/19 07:53:28;;;;;;;;;;;;;;;19.34;73.88;101268.88;5040169;28;1507;-78
2023/07/19 07:55:53;;;;;;;;;;;;;;;19.44;73.82;101269.50;5046344;28;1153;-77
2023/07/19 07:58:19;;;;;;;;;;;;;;;19.56;73.80;101268.13;5043031;28;1174;-78
2023/07/19 08:00:44;;;;;;;;;;;;;;;19.76;72.25;101257.16;5046331;28;1362;-77
2023/07/19 08:03:10;;;;;;;;;;;;;;;19.79;72.67;101255.00;5048259;28;1033;-76
2023/07/19 08:05:35;;;;;;;;;;;;;;;19.98;72.69;101256.34;5045735;28;1149;-77
2023/07/19 08:08:01;;;;;;;;;;;;;;;20.20;71.93;101249.44;5046195;28;1097;-77
2023/07/19 08:10:27;;;;;;;;;;;;;;;20.25;70.60;101251.53;5055730;28;1894;-77
2023/07/19 08:12:53;;;;;;;;;;;;;;;20.24;70.01;101249.88;5046007;28;1359;-78
2023/07/19 08:15:18;;;;;;;;;;;;;;;20.26;70.26;101255.81;5044264;28;1033;-78
2023/07/19 08:17:44;;;;;;;;;;;;;;;20.36;69.78;101264.28;5046442;28;931;-78
2023/07/19 08:20:10;;;;;;;;;;;;;;;20.41;69.74;101251.38;5049652;28;1099;-77
2023/07/19 08:22:35;;;;;;;;;;;;;;;20.47;69.20;101253.31;5043133;28;1698;-78
2023/07/19 08:25:00;;;;;;;;;;;;;;;20.56;68.83;101260.16;5048989;28;1280;-78
2023/07/19 08:27:26;;;;;;;;;;;;;;;20.61;68.39;101257.81;5045651;28;1210;-78
2023/07/19 08:29:52;;;;;;;;;;;;;;;20.62;68.01;101254.16;5049200;28;1898;-78
2023/07/19 08:32:17;;;;;;;;;;;;;;;20.67;68.10;101241.25;5043514;28;1268;-80
2023/07/19 08:34:43;;;;;;;;;;;;;;;20.76;68.72;101238.53;5030970;28;1147;-79
2023/07/19 08:37:08;;;;;;;;;;;;;;;20.84;66.90;101238.44;5045645;28;1319;-78
2023/07/19 08:39:33;;;;;;;;;;;;;;;20.91;68.30;101242.81;5046190;28;1348;-78
2023/07/19 08:42:01;;;;;;;;;;;;;;;20.92;66.88;101244.44;5026771;28;1519;-77
2023/07/19 08:44:26;;;;;;;;;;;;;;;20.86;67.41;101239.88;5042929;28;1276;-78
2023/07/19 08:46:51;;;;;;;;;;;;;;;20.97;66.56;101235.16;5042989;28;1296;-77
2023/07/19 08:49:17;;;;;;;;;;;;;;;20.93;67.55;101242.59;5031021;28;1944;-77
2023/07/19 08:51:43;;;;;;;;;;;;;;;20.99;66.25;101239.28;5044560;28;1308;-77
2023/07/19 08:54:08;;;;;;;;;;;;;;;20.99;66.22;101239.28;5041381;28;1248;-77
2023/07/19 08:56:34;;;;;;;;;;;;;;;20.97;65.29;101246.53;5041803;28;1209;-75
2023/07/19 08:58:59;;;;;;;;;;;;;;;20.85;65.99;101248.00;5049959;28;1216;-78
2023/07/19 09:01:24;;;;;;;;;;;;;;;20.92;66.11;101248.88;5046376;28;1284;-78
2023/07/19 09:03:49;;;;;;;;;;;;;;;20.96;66.41;101242.25;5035120;28;1213;-78
2023/07/19 09:06:24;;;;;;;;;;;;;;;21.00;65.85;101240.09;5043793;28;1308;-78
2023/07/19 09:08:50;;;;;;;;;;;;;;;20.98;66.04;101248.16;5046699;28;1886;-78
2023/07/19 09:11:22;;;;;;;;;;;;;;;21.11;65.65;101248.34;5045031;28;1284;-78
2023/07/19 09:13:58;;;;;;;;;;;;;;;21.27;65.12;101246.47;5041838;28;1280;-80
2023/07/19 09:16:27;;;;;;;;;;;;;;;21.41;63.99;101248.31;5040265;28;1373;-77
2023/07/19 09:18:52;;;;;;;;;;;;;;;21.35;62.96;101247.25;5042312;28;1613;-77
2023/07/19 09:21:29;;;;;;;;;;;;;;;21.39;62.91;101247.66;5045096;28;1352;-77
2023/07/19 09:23:54;;;;;;;;;;;;;;;21.48;63.43;101254.47;5046566;28;1326;-77
2023/07/19 09:26:19;;;;;;;;;;;;;;;21.61;63.09;101244.06;5031089;28;1356;-77
2023/07/19 09:28:44;;;;;;;;;;;;;;;21.79;62.38;101240.16;5044008;28;1173;-77
2023/07/19 09:31:09;;;;;;;;;;;;;;;21.93;61.25;101249.88;5041972;28;1966;-79
2023/07/19 09:33:35;;;;;;;;;;;;;;;21.89;61.20;101246.78;5039526;28;1307;-77
2023/07/19 09:36:01;;;;;;;;;;;;;;;21.92;60.62;101245.59;5043984;28;1399;-77
2023/07/19 09:38:26;;;;;;;;;;;;;;;21.92;58.15;101250.88;5047943;28;1149;-76
2023/07/19 09:40:52;;;;;;;;;;;;;;;21.89;59.78;101244.13;5027834;28;1399;-77
2023/07/19 09:43:17;;;;;;;;;;;;;;;22.00;58.87;101248.09;5043382;28;1304;-77
2023/07/19 09:45:45;;;;;;;;;;;;;;;22.03;59.08;101247.72;5043999;28;1134;-78
2023/07/19 09:48:10;;;;;;;;;;;;;;;22.21;58.97;101240.19;5040282;28;1358;-80
2023/07/19 09:50:39;;;;;;;;;;;;;;;22.31;58.46;101249.56;5042512;28;1973;-78
2023/07/19 09:53:05;;;;;;;;;;;;;;;22.31;59.18;101244.28;5042495;28;1301;-77
2023/07/19 09:55:31;;;;;;;;;;;;;;;22.33;58.73;101242.28;5032730;28;1194;-77
2023/07/19 09:57:57;;;;;;;;;;;;;;;22.24;58.89;101245.06;5042708;28;1070;-77
2023/07/19 10:00:22;;;;;;;;;;;;;;;22.24;59.42;101245.06;5045837;28;1064;-78
2023/07/19 10:02:47;;;;;;;;;;;;;;;22.39;58.71;101241.53;5045613;28;1130;-79
2023/07/19 10:05:14;;;;;;;;;;;;;;;22.45;57.73;101240.75;5047916;28;1172;-78
2023/07/19 10:07:39;;;;;;;;;;;;;;;22.31;58.61;101241.66;5028431;28;1592;-77
2023/07/19 10:10:04;;;;;;;;;;;;;;;22.44;58.93;101245.22;5042921;28;1898;-79
2023/07/19 10:12:31;;;;;;;;;;;;;;;22.38;58.86;101239.91;5022734;28;1205;-77
2023/07/19 10:15:00;;;;;;;;;;;;;;;22.38;59.42;101237.25;5039057;28;1227;-78
2023/07/19 10:17:25;;;;;;;;;;;;;;;22.52;59.12;101238.97;5044259;28;998;-77
2023/07/19 10:19:56;;;;;;;;;;;;;;;22.66;59.41;101232.75;5022349;28;1276;-77
2023/07/19 10:22:41;;;;;;;;;;;;;;;22.91;58.68;101229.66;5030008;28;1550;-78
2023/07/19 10:25:07;;;;;;;;;;;;;;;23.01;58.47;101236.22;5044578;28;1287;-78
2023/07/19 10:27:35;;;;;;;;;;;;;;;23.01;58.57;101235.41;5048736;28;1635;-78
2023/07/19 10:30:05;;;;;;;;;;;;;;;23.05;58.72;101220.75;5045390;28;1957;-77
2023/07/19 10:32:30;;;;;;;;;;;;;;;23.29;57.26;101230.84;5049143;28;1335;-78
2023/07/19 10:34:55;;;;;;;;;;;;;;;23.20;57.38;101229.38;5044978;28;1317;-77
2023/07/19 10:37:20;;;;;;;;;;;;;;;23.26;58.18;101228.56;5046952;28;1331;-77
2023/07/19 10:39:46;;;;;;;;;;;;;;;23.40;57.90;101228.59;5044328;28;1299;-78
2023/07/19 10:42:11;;;;;;;;;;;;;;;23.45;57.41;101226.16;5043644;28;1228;-77
2023/07/19 10:44:36;;;;;;;;;;;;;;;23.50;57.37;101223.75;5041046;28;1145;-77
2023/07/19 10:47:01;;;;;;;;;;;;;;;23.61;57.30;101225.00;5047493;28;1170;-77
2023/07/19 10:49:27;;;;;;;;;;;;;;;23.59;56.39;101222.56;5049008;28;1905;-77
2023/07/19 10:51:53;;;;;;;;;;;;;;;23.59;57.23;101230.50;5048337;28;1296;-78
2023/07/19 10:54:19;;;;;;;;;;;;;;;23.79;56.71;101222.59;5047797;28;1152;-77
2023/07/19 10:56:46;;;;;;;;;;;;;;;23.96;56.56;101225.66;5042791;28;1233;-79
2023/07/19 10:59:12;;;;;;;;;;;;;;;24.16;56.99;101228.31;5032384;28;1406;-77
2023/07/19 11:01:37;;;;;;;;;;;;;;;24.39;55.85;101218.13;5048678;28;1285;-79
2023/07/19 11:04:04;;;;;;;;;;;;;;;24.44;56.02;101220.16;5045497;28;946;-77
2023/07/19 11:06:30;;;;;;;;;;;;;;;24.54;55.55;101225.84;5029891;28;1234;-78
2023/07/19 11:09:08;;;;;;;;;;;;;;;24.41;55.59;101226.69;5049464;28;1898;-77
2023/07/19 11:11:35;;;;;;;;;;;;;;;24.42;55.36;101227.50;5044919;28;1165;-77
2023/07/19 11:14:00;;;;;;;;;;;;;;;24.39;54.96;101215.47;5044993;28;1169;-77
2023/07/19 11:16:25;;;;;;;;;;;;;;;24.38;54.47;101221.00;5032255;28;1226;-77
2023/07/19 11:18:52;;;;;;;;;;;;;;;24.26;54.98;101218.94;5044059;28;1658;-77
2023/07/19 11:21:27;;;;;;;;;;;;;;;24.34;54.83;101216.09;5042075;28;1245;-77
2023/07/19 11:23:53;;;;;;;;;;;;;;;24.38;53.84;101215.69;5046218;28;1217;-77
2023/07/19 11:26:18;;;;;;;;;;;;;;;24.35;50.88;101214.25;5047245;28;959;-77
2023/07/19 11:28:47;;;;;;;;;;;;;;;24.18;52.63;101216.50;5047689;28;1340;-77
2023/07/19 11:31:31;;;;;;;;;;;;;;;24.03;52.68;101218.56;5046467;28;1951;-78
2023/07/19 11:34:17;;;;;;;;;;;;;;;23.83;53.66;101226.47;5043940;28;1269;-77
2023/07/19 11:36:43;;;;;;;;;;;;;;;23.72;53.35;101219.94;5046783;28;1557;-77
2023/07/19 11:39:20;;;;;;;;;;;;;;;23.55;53.01;101216.03;5033021;28;1292;-77
2023/07/19 11:41:46;;;;;;;;;;;;;;;23.40;53.15;101223.31;5043023;28;1151;-76
2023/07/19 11:44:19;;;;;;;;;;;;;;;23.37;53.73;101223.72;5046534;28;1208;-77
2023/07/19 11:46:44;;;;;;;;;;;;;;;23.57;54.93;101219.31;5032000;28;1378;-77
2023/07/19 11:49:10;;;;;;;;;;;;;;;23.85;55.05;101217.28;5047950;28;1951;-77
2023/07/19 11:51:35;;;;;;;;;;;;;;;23.95;53.09;101218.75;5043405;28;1220;-78
2023/07/19 11:54:01;;;;;;;;;;;;;;;23.85;53.88;101233.19;5048617;28;1551;-77
2023/07/19 11:56:26;;;;;;;;;;;;;;;23.84;54.01;101234.22;5042550;28;1471;-78
2023/07/19 11:58:51;;;;;;;;;;;;;;;23.96;53.68;101229.13;5049263;28;1292;-78
2023/07/19 12:01:20;;;;;;;;;;;;;;;23.85;52.81;101233.19;5044545;28;1096;-77
2023/07/19 12:03:46;;;;;;;;;;;;;;;23.75;53.33;101232.78;5046136;28;1122;-79
2023/07/19 12:06:14;;;;;;;;;;;;;;;23.78;55.12;101242.97;5044396;28;1088;-79
2023/07/19 12:08:39;;;;;;;;;;;;;;;23.37;55.18;101239.59;5046257;28;945;-77
2023/07/19 12:11:06;;;;;;;;;;;;;;;23.07;56.17;101236.44;5028539;28;1890;-78
2023/07/19 12:13:31;;;;;;;;;;;;;;;22.92;56.95;101236.56;5045960;28;1125;-77
2023/07/19 12:15:56;;;;;;;;;;;;;;;22.70;59.01;101243.75;5044624;28;1160;-78
2023/07/19 12:18:21;;;;;;;;;;;;;;;22.83;59.62;101227.16;5046812;28;1089;-77
2023/07/19 12:20:46;;;;;;;;;;;;;;;22.90;58.50;101217.44;5045866;28;1110;-77
2023/07/19 12:23:12;;;;;;;;;;;;;;;22.77;56.24;101239.34;5046461;28;1337;-77
2023/07/19 12:25:37;;;;;;;;;;;;;;;22.54;56.68;101234.31;5046448;28;1336;-77
2023/07/19 12:28:02;;;;;;;;;;;;;;;22.52;57.77;101246.88;5044169;28;1373;-77
2023/07/19 12:30:29;;;;;;;;;;;;;;;22.32;58.77;101245.94;5041771;28;1918;-77
2023/07/19 12:32:54;;;;;;;;;;;;;;;22.30;58.76;101261.16;5041162;28;1202;-76
2023/07/19 12:35:19;;;;;;;;;;;;;;;21.93;62.70;101263.06;5043911;28;1226;-76
2023/07/19 12:37:47;;;;;;;;;;;;;;;21.74;64.54;101265.34;5043762;28;1204;-76
2023/07/19 12:40:13;;;;;;;;;;;;;;;21.61;67.35;101254.63;5043247;28;1102;-77